Havelock, North Dakota
Current Conditions -  °F | °C
As of 8:56 PM on Wednesday 22 Oct 2014 (Local Time) from KDIK Reporting Station
Clear Clear  
Wind Chill: 41°   Ceiling: Unl
Heat Index: 45°   Visibility: 10mi
Dew Point: 32°   Wind: 7mph
Humidity: 60%   Direction: 260°W
Pressure: 29.92"   Gusts: NA
Location:  46.4704°N, 102.78°W
Report Text: KDIK 230256Z AUTO 26006KT 10SM CLR 07/00 A2992 RMK AO2 SLP139 T00720000 51012
Loading
Personal Weather Stations






























Interactive Weather Map
Tropical Storm Tracking
New forecast layout! Learn more

10-Day Weather Forecast

Advertisements
Track Severe Weather on mobile